Isola Bianca — ICLD — position and weather

sailwx.info

Track history (hours):
 
Tides and Currents Weather Stations Pressure Air Temp Water Temp Dewpoint Dewpoint Depression Visibility Wind Speed Wind Dir Waves Ship Positions

Isola Bianca

Last reported at 2017-Jan-10 23:21 UTC. Time now 2017-Jan-22 05:57 UTC.
Position S 23°05' W 042°51'.
Warning: this ship's position is 11 days out of date.

Length 183 m; draft 8.2 m.

Type: Ship. MMSI: 247245200.

Date/timePositionNaut miles runAvg speedWind from/ knotsBaromVisibWave heightAir tempDewpointWater temp
2017-Jan-10 23:21S 23°05' W 042°51'1013.1
2017-Jan-10 22:33S 23°04' W 043°02'1110.9
2017-Jan-10 21:33S 22°55' W 043°09'2 1.8
2017-Jan-10 20:28S 22°53' W 043°10'0 0.2
2017-Jan-10 19:28S 22°53' W 043°10'0 0.0
2017-Jan-10 18:28S 22°53' W 043°10'0 0.0
2017-Jan-10 17:10S 22°53' W 043°10'0 0.0
2017-Jan-10 16:22S 22°53' W 043°10'0 0.0
2017-Jan-10 15:28S 22°53' W 043°10'0 0.0
2017-Jan-10 13:28S 22°53' W 043°10'0 0.1
2017-Jan-10 12:28S 22°53' W 043°10'0 0.1
2017-Jan-10 11:28S 22°53' W 043°10'0 0.1
2017-Jan-10 10:28S 22°53' W 043°10'0 0.0
2017-Jan-10 09:22S 22°53' W 043°10'0 0.0
2017-Jan-10 08:28S 22°53' W 043°10'0 0.0
2017-Jan-10 07:28S 22°53' W 043°10'0 0.0
2017-Jan-10 06:28S 22°53' W 043°10'0 0.0
2017-Jan-10 05:28S 22°53' W 043°10'0 0.1
2017-Jan-10 04:28S 22°53' W 043°10'0 0.1
2017-Jan-10 03:28S 22°53' W 043°10'0 0.0
2017-Jan-10 02:10S 22°53' W 043°10'0 0.0
2017-Jan-10 01:28S 22°53' W 043°10'0 0.0
2017-Jan-10 00:28S 22°53' W 043°10'0 0.2
2017-Jan-09 23:28S 22°53' W 043°10'4 4.3
2017-Jan-09 22:33S 22°56' W 043°08'10 9.2
2017-Jan-09 21:28S 23°06' W 043°05'2 1.5
2017-Jan-09 20:14S 23°08' W 043°05'6 8.3
2017-Jan-09 19:32S 23°12' W 043°10'  
2017-Jan-02 12:20S 26°56' W 046°04'16412.7
2017-Jan-01 23:24S 25°07' W 043°47'1112.0
2017-Jan-01 22:28S 24°60' W 043°38'1512.3
2017-Jan-01 21:13S 24°50' W 043°25'1412.5
2017-Jan-01 20:08S 24°41' W 043°14'712.5
2017-Jan-01 19:33S 24°36' W 043°08'1312.6
2017-Jan-01 18:33S 24°27' W 042°58'3911.9
2017-Jan-01 15:17S 24°02' W 042°26'1212.0
2017-Jan-01 14:19S 23°54' W 042°16'2411.9
2017-Jan-01 12:19S 23°39' W 041°56'912.1
2017-Jan-01 11:33S 23°33' W 041°49'1212.3
2017-Jan-01 10:33S 23°24' W 041°39'1513.0
2017-Jan-01 09:22S 23°14' W 041°27'1112.9
2017-Jan-01 08:31S 23°06' W 041°17'1313.1
2017-Jan-01 07:33S 22°58' W 041°07'  
Track history (hours):
 
Tides and Currents Weather Stations Pressure Air Temp Water Temp Dewpoint Dewpoint Depression Visibility Wind Speed Wind Dir Waves Ship Positions

Isola Bianca

Last reported at 2017-Jan-10 23:21 UTC. Time now 2017-Jan-22 05:57 UTC.
Position S 23°05' W 042°51'.
Warning: this ship's position is 11 days out of date.

Length 183 m; draft 8.2 m.

Type: Ship. MMSI: 247245200.

Date/timePositionNaut miles runAvg speedWind from/ knotsBaromVisibWave heightAir tempDewpointWater temp
2017-Jan-10 23:21S 23°05' W 042°51'1013.1
2017-Jan-10 22:33S 23°04' W 043°02'1110.9
2017-Jan-10 21:33S 22°55' W 043°09'2 1.8
2017-Jan-10 20:28S 22°53' W 043°10'0 0.2
2017-Jan-10 19:28S 22°53' W 043°10'0 0.0
2017-Jan-10 18:28S 22°53' W 043°10'0 0.0
2017-Jan-10 17:10S 22°53' W 043°10'0 0.0
2017-Jan-10 16:22S 22°53' W 043°10'0 0.0
2017-Jan-10 15:28S 22°53' W 043°10'0 0.0
2017-Jan-10 13:28S 22°53' W 043°10'0 0.1
2017-Jan-10 12:28S 22°53' W 043°10'0 0.1
2017-Jan-10 11:28S 22°53' W 043°10'0 0.1
2017-Jan-10 10:28S 22°53' W 043°10'0 0.0
2017-Jan-10 09:22S 22°53' W 043°10'0 0.0
2017-Jan-10 08:28S 22°53' W 043°10'0 0.0
2017-Jan-10 07:28S 22°53' W 043°10'0 0.0
2017-Jan-10 06:28S 22°53' W 043°10'0 0.0
2017-Jan-10 05:28S 22°53' W 043°10'0 0.1
2017-Jan-10 04:28S 22°53' W 043°10'0 0.1
2017-Jan-10 03:28S 22°53' W 043°10'0 0.0
2017-Jan-10 02:10S 22°53' W 043°10'0 0.0
2017-Jan-10 01:28S 22°53' W 043°10'0 0.0
2017-Jan-10 00:28S 22°53' W 043°10'0 0.2
2017-Jan-09 23:28S 22°53' W 043°10'4 4.3
2017-Jan-09 22:33S 22°56' W 043°08'10 9.2
2017-Jan-09 21:28S 23°06' W 043°05'2 1.5
2017-Jan-09 20:14S 23°08' W 043°05'6 8.3
2017-Jan-09 19:32S 23°12' W 043°10'  
2017-Jan-02 12:20S 26°56' W 046°04'16412.7
2017-Jan-01 23:24S 25°07' W 043°47'1112.0
2017-Jan-01 22:28S 24°60' W 043°38'1512.3
2017-Jan-01 21:13S 24°50' W 043°25'1412.5
2017-Jan-01 20:08S 24°41' W 043°14'712.5
2017-Jan-01 19:33S 24°36' W 043°08'1312.6
2017-Jan-01 18:33S 24°27' W 042°58'3911.9
2017-Jan-01 15:17S 24°02' W 042°26'1212.0
2017-Jan-01 14:19S 23°54' W 042°16'2411.9
2017-Jan-01 12:19S 23°39' W 041°56'912.1
2017-Jan-01 11:33S 23°33' W 041°49'1212.3
2017-Jan-01 10:33S 23°24' W 041°39'1513.0
2017-Jan-01 09:22S 23°14' W 041°27'1112.9
2017-Jan-01 08:31S 23°06' W 041°17'1313.1
2017-Jan-01 07:33S 22°58' W 041°07'  

Dump ship's entire track history